Time;durP1;ratioP1;P1;durP2;ratioP2;P2;SDS_P1;SDS_P2;PMS_P1;PMS_P2;Temp;Humidity;BMP_temperature;BMP_pressure;BME280_temperature;BME280_humidity;BME280_pressure;Samples;Min_cycle;Max_cycle;Signal;HPM_P1;HPM_P2
2023/05/29 00:01:06;;;;;;;;;22.00;21.00;;;;;;;;4970178;28;8936;-69
2023/05/29 00:03:32;;;;;;;;;25.50;23.50;;;;;;;;4971417;28;8809;-70
2023/05/29 00:05:58;;;;;;;;;25.00;23.00;;;;;;;;4971498;28;10507;-70
2023/05/29 00:08:23;;;;;;;;;22.50;21.25;;;;;;;;4970229;28;9572;-70
2023/05/29 00:10:49;;;;;;;;;22.00;21.00;;;;;;;;4971213;28;8967;-69
2023/05/29 00:13:14;;;;;;;;;24.75;21.25;;;;;;;;4971353;28;8821;-69
2023/05/29 00:15:40;;;;;;;;;21.00;20.50;;;;;;;;4971311;28;9544;-70
2023/05/29 00:18:05;;;;;;;;;22.75;22.75;;;;;;;;4971391;28;9521;-70
2023/05/29 00:20:33;;;;;;;;;10.75;7.50;;;;;;;;4971763;28;8908;-69
2023/05/29 00:22:59;;;;;;;;;21.25;21.25;;;;;;;;4971466;28;8794;-69
2023/05/29 00:25:24;;;;;;;;;27.00;22.00;;;;;;;;4971040;28;10681;-70
2023/05/29 00:27:49;;;;;;;;;20.00;20.00;;;;;;;;4974169;28;8832;-70
2023/05/29 00:30:15;;;;;;;;;21.50;18.00;;;;;;;;4973144;28;8805;-69
2023/05/29 00:32:40;;;;;;;;;21.50;21.00;;;;;;;;4975108;28;8812;-69
2023/05/29 00:35:06;;;;;;;;;25.00;21.50;;;;;;;;4975069;28;8933;-69
2023/05/29 00:37:31;;;;;;;;;20.75;19.00;;;;;;;;4974972;28;8801;-70
2023/05/29 00:39:57;;;;;;;;;22.00;20.00;;;;;;;;4974957;28;8790;-70
2023/05/29 00:42:22;;;;;;;;;17.50;17.50;;;;;;;;4974294;28;8940;-70
2023/05/29 00:44:47;;;;;;;;;20.75;20.00;;;;;;;;4974612;28;8855;-69
2023/05/29 00:47:13;;;;;;;;;16.50;16.50;;;;;;;;4974672;28;8769;-70
2023/05/29 11:15:43;;;;;;;;;6.50;6.50;;;;;;;;5103580;27;13435;-65
2023/05/29 11:18:11;;;;;;;;;10.00;7.00;;;;;;;;5106759;28;8803;-68
2023/05/29 11:20:43;;;;;;;;;5.00;3.75;;;;;;;;5117861;27;8800;-66
2023/05/29 11:23:16;;;;;;;;;8.00;6.00;;;;;;;;5108695;28;9538;-74
2023/05/29 11:25:43;;;;;;;;;8.25;7.00;;;;;;;;5107239;28;8804;-71
2023/05/29 11:28:10;;;;;;;;;7.75;7.00;;;;;;;;5106970;28;8783;-71
2023/05/29 11:30:46;;;;;;;;;8.50;7.25;;;;;;;;5106935;28;8812;-71
2023/05/29 11:33:19;;;;;;;;;7.00;7.00;;;;;;;;5105570;28;8902;-70
2023/05/29 11:35:45;;;;;;;;;7.25;7.00;;;;;;;;5106937;28;8787;-71
2023/05/29 11:38:10;;;;;;;;;7.75;7.25;;;;;;;;5106875;28;8902;-72
2023/05/29 11:40:37;;;;;;;;;10.00;8.00;;;;;;;;5111132;27;8892;-72
2023/05/29 11:43:02;;;;;;;;;6.00;6.00;;;;;;;;5123657;27;8928;-72
2023/05/29 11:45:31;;;;;;;;;6.33;4.67;;;;;;;;5101219;27;8822;-71
2023/05/29 11:48:00;;;;;;;;;8.75;7.50;;;;;;;;5086174;28;8912;-72
2023/05/29 11:50:32;;;;;;;;;8.00;7.75;;;;;;;;5086185;28;8822;-73
2023/05/29 11:52:57;;;;;;;;;9.00;8.00;;;;;;;;5085885;28;8806;-70
2023/05/29 11:55:23;;;;;;;;;8.00;8.00;;;;;;;;5086370;28;8829;-70
2023/05/29 11:57:49;;;;;;;;;11.50;9.00;;;;;;;;5085630;28;8887;-70
2023/05/29 12:00:16;;;;;;;;;10.25;9.00;;;;;;;;5086139;28;9019;-70
2023/05/29 12:02:46;;;;;;;;;10.25;7.00;;;;;;;;5084261;28;9628;-72
2023/05/29 12:05:14;;;;;;;;;10.50;9.00;;;;;;;;5084261;28;8818;-72
2023/05/29 12:07:46;;;;;;;;;7.50;7.50;;;;;;;;5084755;28;8802;-73
2023/05/29 12:10:12;;;;;;;;;9.00;9.00;;;;;;;;5085630;28;9595;-73
2023/05/29 12:12:39;;;;;;;;;7.67;6.00;;;;;;;;5125114;27;8797;-73
2023/05/29 12:15:06;;;;;;;;;6.00;6.00;;;;;;;;5125061;27;8836;-72
2023/05/29 12:17:32;;;;;;;;;8.50;8.50;;;;;;;;5124969;27;8825;-73
2023/05/29 12:19:57;;;;;;;;;11.00;7.00;;;;;;;;5125851;27;8804;-72
2023/05/29 12:22:35;;;;;;;;;10.67;9.00;;;;;;;;5126057;27;8900;-72
2023/05/29 12:25:05;;;;;;;;;10.00;8.25;;;;;;;;5124869;27;8785;-73
2023/05/29 12:27:31;;;;;;;;;10.50;8.75;;;;;;;;5112262;28;8793;-72
2023/05/29 12:30:00;;;;;;;;;12.00;8.67;;;;;;;;5112756;28;8789;-72
2023/05/29 12:32:33;;;;;;;;;7.50;7.25;;;;;;;;5112692;28;8793;-72
2023/05/29 12:34:59;;;;;;;;;10.75;10.75;;;;;;;;5112532;28;9180;-74
2023/05/29 12:37:25;;;;;;;;;11.67;8.67;;;;;;;;5112414;28;8777;-70
2023/05/29 12:40:09;;;;;;;;;9.67;9.67;;;;;;;;5112302;28;8801;-70
2023/05/29 12:42:34;;;;;;;;;8.25;8.25;;;;;;;;5112554;28;8859;-70
2023/05/29 12:45:01;;;;;;;;;6.33;6.00;;;;;;;;5112469;28;8813;-70
2023/05/29 12:47:26;;;;;;;;;5.75;5.75;;;;;;;;5112405;28;8785;-70
2023/05/29 12:49:52;;;;;;;;;8.33;8.33;;;;;;;;5112222;28;8808;-70
2023/05/29 12:52:20;;;;;;;;;8.33;8.00;;;;;;;;5112143;28;8781;-70
2023/05/29 12:54:45;;;;;;;;;11.00;8.00;;;;;;;;5112332;28;8844;-70
2023/05/29 12:57:10;;;;;;;;;9.00;8.00;;;;;;;;5111776;28;9547;-70
2023/05/29 12:59:36;;;;;;;;;8.67;8.00;;;;;;;;5112012;28;8804;-70
2023/05/29 13:02:01;;;;;;;;;8.67;8.67;;;;;;;;5112152;27;8886;-70
2023/05/29 13:04:27;;;;;;;;;9.67;8.00;;;;;;;;5111936;27;8824;-70
2023/05/29 13:06:52;;;;;;;;;13.00;13.00;;;;;;;;5111891;28;9187;-70
2023/05/29 13:09:17;;;;;;;;;11.00;11.00;;;;;;;;5112483;28;8781;-70
2023/05/29 13:11:42;;;;;;;;;9.00;8.33;;;;;;;;5111958;28;8809;-70
2023/05/29 13:14:08;;;;;;;;;12.00;8.33;;;;;;;;5111577;28;8924;-70
2023/05/29 13:16:33;;;;;;;;;8.00;8.00;;;;;;;;5111364;27;8839;-70
2023/05/29 13:18:58;;;;;;;;;12.00;9.67;;;;;;;;5111680;28;8804;-70
2023/05/29 13:21:23;;;;;;;;;10.33;8.33;;;;;;;;5111694;28;8785;-69
2023/05/29 13:23:49;;;;;;;;;12.00;10.33;;;;;;;;5111683;28;8786;-70
2023/05/29 13:26:14;;;;;;;;;11.00;11.00;;;;;;;;5111737;28;9125;-70
2023/05/29 13:28:39;;;;;;;;;9.00;8.00;;;;;;;;5111481;28;9667;-70
2023/05/29 13:31:04;;;;;;;;;11.67;11.33;;;;;;;;5111445;28;8925;-70
2023/05/29 13:33:30;;;;;;;;;11.33;11.00;;;;;;;;5111036;28;8797;-70
2023/05/29 13:35:55;;;;;;;;;11.33;10.33;;;;;;;;5111421;28;8777;-70
2023/05/29 13:38:20;;;;;;;;;13.33;12.67;;;;;;;;5110486;28;8785;-70
2023/05/29 13:40:46;;;;;;;;;13.00;12.00;;;;;;;;5111419;28;8777;-70
2023/05/29 13:43:11;;;;;;;;;12.33;11.00;;;;;;;;5111273;28;8796;-71
2023/05/29 13:45:36;;;;;;;;;12.67;12.33;;;;;;;;5111314;28;8816;-73
2023/05/29 13:48:02;;;;;;;;;11.33;10.33;;;;;;;;5111028;28;8793;-72
2023/05/29 13:50:27;;;;;;;;;10.33;7.33;;;;;;;;5111149;28;8789;-73
2023/05/29 13:52:52;;;;;;;;;10.00;10.00;;;;;;;;5111144;28;9581;-72
2023/05/29 13:55:17;;;;;;;;;12.67;10.33;;;;;;;;5111165;28;8869;-73
2023/05/29 13:57:43;;;;;;;;;12.00;11.67;;;;;;;;5110811;28;9480;-72
2023/05/29 14:00:11;;;;;;;;;11.00;10.00;;;;;;;;5110881;27;8797;-72
2023/05/29 14:02:37;;;;;;;;;13.75;12.75;;;;;;;;5110895;28;8782;-73
2023/05/29 14:05:02;;;;;;;;;11.00;11.00;;;;;;;;5111104;28;9697;-73
2023/05/29 14:07:31;;;;;;;;;13.00;11.33;;;;;;;;5109804;28;8797;-74
2023/05/29 14:09:56;;;;;;;;;12.50;12.50;;;;;;;;5074747;22;8920;-71
2023/05/29 14:12:22;;;;;;;;;12.33;9.67;;;;;;;;5068069;28;8809;-71
2023/05/29 14:14:47;;;;;;;;;11.00;10.67;;;;;;;;5069285;28;8812;-71
2023/05/29 14:17:13;;;;;;;;;13.33;11.67;;;;;;;;5051873;28;8800;-71
2023/05/29 14:19:38;;;;;;;;;13.25;10.50;;;;;;;;5069699;28;8912;-71
2023/05/29 14:22:04;;;;;;;;;16.00;11.67;;;;;;;;5069543;28;8907;-71
2023/05/29 14:24:29;;;;;;;;;12.67;10.33;;;;;;;;5069584;28;8808;-72
2023/05/29 14:26:55;;;;;;;;;13.67;12.67;;;;;;;;5069482;28;8905;-72
2023/05/29 14:29:20;;;;;;;;;10.33;9.33;;;;;;;;5069562;28;8785;-72
2023/05/29 14:31:45;;;;;;;;;12.33;10.33;;;;;;;;5069039;28;8780;-72
2023/05/29 14:34:11;;;;;;;;;11.00;11.00;;;;;;;;5069558;28;8908;-73
2023/05/29 14:36:37;;;;;;;;;11.50;9.00;;;;;;;;5069497;28;9668;-72
2023/05/29 14:39:05;;;;;;;;;19.00;14.67;;;;;;;;5069598;28;8816;-71
2023/05/29 14:41:31;;;;;;;;;8.00;8.00;;;;;;;;5069233;28;8831;-74
2023/05/29 14:43:59;;;;;;;;;11.00;11.00;;;;;;;;5069114;28;8812;-74
2023/05/29 14:46:31;;;;;;;;;14.00;13.00;;;;;;;;5069078;28;8823;-75
2023/05/29 14:48:56;;;;;;;;;11.75;10.25;;;;;;;;5050893;28;8804;-74
2023/05/29 14:51:23;;;;;;;;;9.33;9.33;;;;;;;;5068744;28;8793;-76
2023/05/29 14:53:48;;;;;;;;;10.75;10.75;;;;;;;;5069162;28;8828;-73
2023/05/29 14:56:13;;;;;;;;;10.67;10.67;;;;;;;;5050997;28;8792;-73
2023/05/29 14:58:38;;;;;;;;;8.00;6.33;;;;;;;;5068962;28;9507;-75
2023/05/29 15:01:04;;;;;;;;;6.00;6.00;;;;;;;;5068962;28;9113;-74
2023/05/29 15:03:29;;;;;;;;;16.00;12.67;;;;;;;;5069009;28;8784;-75
2023/05/29 15:05:55;;;;;;;;;11.67;11.00;;;;;;;;5068963;28;9542;-74
2023/05/29 15:08:20;;;;;;;;;12.00;11.00;;;;;;;;5068877;28;8930;-75
2023/05/29 15:10:45;;;;;;;;;11.33;11.33;;;;;;;;5068727;28;8820;-74
2023/05/29 15:13:10;;;;;;;;;11.67;11.00;;;;;;;;5068836;28;8869;-74
2023/05/29 15:15:36;;;;;;;;;15.00;10.00;;;;;;;;5068636;28;8800;-74
2023/05/29 15:18:01;;;;;;;;;10.00;7.67;;;;;;;;5068853;28;8812;-73
2023/05/29 15:20:27;;;;;;;;;8.33;7.00;;;;;;;;5068825;28;8808;-74
2023/05/29 15:22:52;;;;;;;;;9.33;9.33;;;;;;;;5068650;28;8784;-73
2023/05/29 15:25:18;;;;;;;;;9.00;8.00;;;;;;;;5068560;28;8862;-74
2023/05/29 15:27:44;;;;;;;;;9.00;8.00;;;;;;;;5068633;28;8875;-74
2023/05/29 15:30:10;;;;;;;;;9.67;8.00;;;;;;;;5068432;28;12223;-73
2023/05/29 15:32:35;;;;;;;;;9.50;9.50;;;;;;;;5064911;28;8796;-73
2023/05/29 15:35:01;;;;;;;;;10.33;10.33;;;;;;;;5030156;28;9686;-80
2023/05/29 15:37:26;;;;;;;;;12.00;8.00;;;;;;;;5048610;28;8815;-78
2023/05/29 15:39:51;;;;;;;;;11.67;9.00;;;;;;;;5048929;28;8779;-74
2023/05/29 15:42:16;;;;;;;;;10.33;9.00;;;;;;;;5066722;28;8954;-72
2023/05/29 15:44:42;;;;;;;;;12.33;8.33;;;;;;;;5047899;28;8827;-77
2023/05/29 15:47:07;;;;;;;;;12.67;11.00;;;;;;;;5050194;28;8828;-80
2023/05/29 15:49:33;;;;;;;;;8.00;6.00;;;;;;;;5068716;28;9824;-80
2023/05/29 15:51:58;;;;;;;;;12.00;9.67;;;;;;;;5041559;28;8937;-78
2023/05/29 15:54:23;;;;;;;;;11.00;11.00;;;;;;;;5048465;28;8843;-73
2023/05/29 15:56:48;;;;;;;;;11.33;7.67;;;;;;;;5047320;28;8814;-79
2023/05/29 15:59:14;;;;;;;;;8.67;8.33;;;;;;;;5030518;28;8795;-69
2023/05/29 16:01:39;;;;;;;;;11.33;10.00;;;;;;;;5050808;28;8909;-69
2023/05/29 16:04:06;;;;;;;;;15.00;10.67;;;;;;;;5052136;28;8802;-69
2023/05/29 16:06:32;;;;;;;;;11.25;9.75;;;;;;;;5050883;28;8834;-68
2023/05/29 16:08:57;;;;;;;;;13.67;12.00;;;;;;;;5052240;28;8826;-70
2023/05/29 16:11:22;;;;;;;;;11.33;9.33;;;;;;;;5034069;28;8896;-80
2023/05/29 16:13:48;;;;;;;;;11.67;10.00;;;;;;;;5051956;28;8818;-82
2023/05/29 16:16:13;;;;;;;;;12.33;10.00;;;;;;;;5062619;28;8812;-83
2023/05/29 16:18:38;;;;;;;;;15.00;13.00;;;;;;;;5071988;28;8819;-83
2023/05/29 16:21:04;;;;;;;;;8.00;8.00;;;;;;;;5072039;28;8812;-78
2023/05/29 16:23:29;;;;;;;;;12.33;11.67;;;;;;;;5072154;28;8812;-84
2023/05/29 16:25:54;;;;;;;;;13.00;9.33;;;;;;;;5052258;28;8940;-85
2023/05/29 16:28:20;;;;;;;;;12.00;8.67;;;;;;;;5051561;28;8804;-74
2023/05/29 16:30:45;;;;;;;;;11.00;8.67;;;;;;;;5051608;28;8937;-76
2023/05/29 16:33:12;;;;;;;;;11.00;11.00;;;;;;;;5051936;28;8815;-80
2023/05/29 16:35:37;;;;;;;;;10.50;9.50;;;;;;;;5051284;28;8977;-81
2023/05/29 16:38:02;;;;;;;;;13.33;10.33;;;;;;;;5051538;28;9806;-79
2023/05/29 16:40:27;;;;;;;;;11.33;8.00;;;;;;;;5051191;28;8807;-71
2023/05/29 16:42:53;;;;;;;;;11.33;9.33;;;;;;;;5050678;28;8822;-74
2023/05/29 16:45:18;;;;;;;;;11.33;11.00;;;;;;;;5041969;28;8951;-75
2023/05/29 16:47:43;;;;;;;;;11.00;7.67;;;;;;;;5051580;28;8822;-75
2023/05/29 16:50:09;;;;;;;;;10.00;10.00;;;;;;;;5051463;28;8791;-78
2023/05/29 16:52:34;;;;;;;;;10.33;10.33;;;;;;;;5050154;28;8802;-75
2023/05/29 16:55:01;;;;;;;;;11.67;6.67;;;;;;;;5051118;28;8829;-77
2023/05/29 16:57:28;;;;;;;;;13.75;10.50;;;;;;;;5051312;28;8863;-79
2023/05/29 16:59:53;;;;;;;;;14.00;11.50;;;;;;;;5051260;28;8807;-83
2023/05/29 17:02:19;;;;;;;;;9.00;7.33;;;;;;;;5051420;28;8798;-85
2023/05/29 17:04:45;;;;;;;;;8.00;8.00;;;;;;;;5051309;28;8806;-83
2023/05/29 17:07:10;;;;;;;;;12.67;10.00;;;;;;;;5051385;28;8921;-82
2023/05/29 17:09:35;;;;;;;;;11.50;8.50;;;;;;;;5110815;22;9675;-81
2023/05/29 17:12:01;;;;;;;;;11.00;10.00;;;;;;;;5073285;28;8806;-80
2023/05/29 17:14:27;;;;;;;;;9.75;8.25;;;;;;;;5070502;28;8823;-76
2023/05/29 17:16:52;;;;;;;;;11.00;10.00;;;;;;;;5071424;28;8824;-87
2023/05/29 17:19:17;;;;;;;;;10.67;10.33;;;;;;;;5071307;28;8789;-77
2023/05/29 17:21:43;;;;;;;;;8.00;8.00;;;;;;;;5072375;28;8794;-80
2023/05/29 17:24:09;;;;;;;;;11.00;10.00;;;;;;;;5071262;28;9501;-79
2023/05/29 17:26:34;;;;;;;;;10.00;9.00;;;;;;;;5069938;28;8886;-76
2023/05/29 17:28:59;;;;;;;;;9.67;9.67;;;;;;;;5083204;28;8832;-75
2023/05/29 17:31:24;;;;;;;;;13.33;10.67;;;;;;;;5070490;28;8806;-75
2023/05/29 17:33:50;;;;;;;;;11.00;10.33;;;;;;;;5070547;28;9027;-76
2023/05/29 17:36:15;;;;;;;;;13.67;11.00;;;;;;;;5070487;28;8807;-77
2023/05/29 17:38:40;;;;;;;;;8.33;7.00;;;;;;;;5070213;28;8794;-75
2023/05/29 17:41:06;;;;;;;;;10.67;9.67;;;;;;;;5068005;28;8823;-78
2023/05/29 17:43:31;;;;;;;;;14.00;12.67;;;;;;;;5069862;28;8814;-76
2023/05/29 17:45:58;;;;;;;;;24.75;24.75;;;;;;;;5070342;28;8909;-77
2023/05/29 17:48:24;;;;;;;;;15.67;15.00;;;;;;;;5069067;28;8849;-77
2023/05/29 17:50:49;;;;;;;;;11.00;10.33;;;;;;;;5068347;28;9852;-77
2023/05/29 17:53:14;;;;;;;;;9.00;9.00;;;;;;;;5070012;28;8810;-80
2023/05/29 17:55:41;;;;;;;;;10.00;9.00;;;;;;;;5070340;28;8874;-78
2023/05/29 17:58:07;;;;;;;;;13.00;11.50;;;;;;;;5070174;28;8856;-78
2023/05/29 18:00:33;;;;;;;;;12.00;12.00;;;;;;;;5068235;28;9072;-77
2023/05/29 18:02:58;;;;;;;;;11.00;11.00;;;;;;;;5070516;28;9670;-80
2023/05/29 18:05:24;;;;;;;;;12.00;11.00;;;;;;;;5068730;28;8921;-79
2023/05/29 18:07:49;;;;;;;;;11.00;9.67;;;;;;;;5068580;28;8927;-78
2023/05/29 18:10:20;;;;;;;;;12.00;10.00;;;;;;;;5066355;28;8862;-76
2023/05/29 18:12:46;;;;;;;;;11.00;9.00;;;;;;;;5069865;28;8803;-82
2023/05/29 18:15:11;;;;;;;;;10.00;10.00;;;;;;;;5069638;28;8861;-73
2023/05/29 18:17:36;;;;;;;;;11.67;10.67;;;;;;;;5069721;28;8895;-75
2023/05/29 18:20:02;;;;;;;;;11.67;10.67;;;;;;;;5067720;28;8823;-81
2023/05/29 18:22:27;;;;;;;;;11.33;11.33;;;;;;;;5070224;28;8810;-77
2023/05/29 18:24:53;;;;;;;;;13.33;11.00;;;;;;;;5069595;28;8798;-75
2023/05/29 18:27:18;;;;;;;;;15.00;12.33;;;;;;;;5090085;28;9602;-80
2023/05/29 18:29:43;;;;;;;;;11.33;10.33;;;;;;;;5085605;28;8819;-87
2023/05/29 18:32:08;;;;;;;;;14.00;13.33;;;;;;;;5070135;28;8801;-80
2023/05/29 18:34:36;;;;;;;;;12.00;11.00;;;;;;;;5069976;28;8872;-81
2023/05/29 18:37:01;;;;;;;;;13.00;10.00;;;;;;;;5069900;28;9005;-86
2023/05/29 18:39:26;;;;;;;;;11.00;9.00;;;;;;;;5068388;28;8956;-87
2023/05/29 18:41:51;;;;;;;;;15.00;14.00;;;;;;;;5068090;28;8906;-78
2023/05/29 18:44:17;;;;;;;;;24.00;22.25;;;;;;;;5069701;28;8770;-77
2023/05/29 18:46:42;;;;;;;;;18.00;15.33;;;;;;;;5069476;28;8798;-77
2023/05/29 18:49:07;;;;;;;;;16.00;14.67;;;;;;;;5069694;28;8847;-82
2023/05/29 18:51:33;;;;;;;;;12.33;12.00;;;;;;;;5066570;28;8806;-81
2023/05/29 18:53:59;;;;;;;;;12.00;11.00;;;;;;;;5069658;28;9555;-90
2023/05/29 18:56:24;;;;;;;;;15.67;11.00;;;;;;;;5083976;28;8813;-78
2023/05/29 18:58:50;;;;;;;;;15.33;13.00;;;;;;;;5089816;28;9842;-77
2023/05/29 19:01:15;;;;;;;;;13.33;11.33;;;;;;;;5069871;28;8949;-73
2023/05/29 19:03:40;;;;;;;;;15.67;13.33;;;;;;;;5067714;28;8837;-74
2023/05/29 19:06:06;;;;;;;;;12.67;11.00;;;;;;;;5068976;28;9493;-75
2023/05/29 19:08:32;;;;;;;;;14.00;13.75;;;;;;;;5068920;28;8823;-75
2023/05/29 19:10:57;;;;;;;;;15.67;15.67;;;;;;;;5066726;28;8910;-74
2023/05/29 19:13:22;;;;;;;;;12.67;12.67;;;;;;;;5069275;28;8794;-74
2023/05/29 19:15:47;;;;;;;;;17.00;14.00;;;;;;;;5068918;28;8810;-73
2023/05/29 19:18:13;;;;;;;;;20.00;18.00;;;;;;;;5071643;28;8810;-76
2023/05/29 19:20:38;;;;;;;;;13.00;12.67;;;;;;;;5065745;28;8835;-79
2023/05/29 19:23:04;;;;;;;;;14.67;12.00;;;;;;;;5068957;28;9549;-76
2023/05/29 19:25:29;;;;;;;;;12.00;12.00;;;;;;;;5074473;28;8912;-75
2023/05/29 19:27:55;;;;;;;;;14.33;13.00;;;;;;;;5089753;28;9102;-79
2023/05/29 19:30:21;;;;;;;;;16.00;13.00;;;;;;;;5079581;28;9545;-75
2023/05/29 19:32:46;;;;;;;;;27.75;27.25;;;;;;;;5068552;28;9382;-74
2023/05/29 19:35:12;;;;;;;;;12.67;10.67;;;;;;;;5067569;28;8826;-75
2023/05/29 19:37:37;;;;;;;;;13.00;13.00;;;;;;;;5071120;28;8803;-72
2023/05/29 19:40:03;;;;;;;;;12.67;12.00;;;;;;;;5068829;28;11029;-74
2023/05/29 19:42:28;;;;;;;;;15.67;13.00;;;;;;;;5071210;28;8786;-73
2023/05/29 19:44:57;;;;;;;;;11.33;10.33;;;;;;;;5069449;28;8833;-75
2023/05/29 19:47:22;;;;;;;;;12.00;10.00;;;;;;;;5068254;28;8810;-74
2023/05/29 19:49:48;;;;;;;;;11.67;11.67;;;;;;;;5068334;28;9028;-76
2023/05/29 19:52:14;;;;;;;;;11.00;11.00;;;;;;;;5069732;28;8806;-75
2023/05/29 19:54:39;;;;;;;;;9.00;9.00;;;;;;;;5069898;28;8841;-75
2023/05/29 19:57:05;;;;;;;;;13.00;13.00;;;;;;;;5070908;28;8791;-75
2023/05/29 19:59:30;;;;;;;;;10.00;10.00;;;;;;;;5073172;28;8773;-75
2023/05/29 20:01:57;;;;;;;;;11.67;10.67;;;;;;;;5068323;28;9300;-74
2023/05/29 20:04:22;;;;;;;;;15.00;12.67;;;;;;;;5070813;28;8795;-76
2023/05/29 20:06:47;;;;;;;;;13.00;12.00;;;;;;;;5070771;28;9274;-72
2023/05/29 20:09:13;;;;;;;;;13.67;13.00;;;;;;;;5072154;28;8812;-74
2023/05/29 20:11:38;;;;;;;;;11.33;10.67;;;;;;;;5068521;28;8794;-73
2023/05/29 20:14:03;;;;;;;;;16.00;14.00;;;;;;;;5070525;28;8830;-74
2023/05/29 20:16:29;;;;;;;;;14.00;13.00;;;;;;;;5070242;28;8812;-73
2023/05/29 20:18:54;;;;;;;;;12.00;12.00;;;;;;;;5070602;28;8798;-72
2023/05/29 20:21:19;;;;;;;;;13.00;11.50;;;;;;;;5069013;28;8822;-74
2023/05/29 20:23:45;;;;;;;;;14.00;11.00;;;;;;;;5070664;28;8790;-77
2023/05/29 20:26:11;;;;;;;;;13.00;13.00;;;;;;;;5070642;28;8826;-75
2023/05/29 20:28:36;;;;;;;;;15.75;14.75;;;;;;;;5068200;28;8925;-73
2023/05/29 20:31:02;;;;;;;;;15.75;12.25;;;;;;;;5068539;28;9683;-73
2023/05/29 20:33:27;;;;;;;;;15.25;13.25;;;;;;;;5071527;28;8794;-73
2023/05/29 20:35:52;;;;;;;;;12.50;11.50;;;;;;;;5072227;28;8953;-74
2023/05/29 20:38:17;;;;;;;;;13.25;12.25;;;;;;;;5073774;28;8915;-75
2023/05/29 20:40:45;;;;;;;;;13.50;13.00;;;;;;;;5071062;28;9586;-76
2023/05/29 20:43:11;;;;;;;;;12.25;12.25;;;;;;;;5071869;28;8842;-75
2023/05/29 20:45:38;;;;;;;;;15.50;13.00;;;;;;;;5070042;28;9591;-77
2023/05/29 20:48:05;;;;;;;;;15.00;13.75;;;;;;;;5062858;28;9602;-76
2023/05/29 20:50:31;;;;;;;;;13.00;13.00;;;;;;;;5069795;28;9391;-76
2023/05/29 20:52:56;;;;;;;;;15.00;12.33;;;;;;;;5070605;28;9265;-76
2023/05/29 20:55:21;;;;;;;;;11.00;10.67;;;;;;;;5071582;28;10035;-76
2023/05/29 20:57:47;;;;;;;;;12.00;11.00;;;;;;;;5070635;28;8783;-75
2023/05/29 21:00:12;;;;;;;;;12.00;10.50;;;;;;;;5068959;28;8798;-77
2023/05/29 21:02:41;;;;;;;;;12.75;11.50;;;;;;;;5070885;28;8798;-77
2023/05/29 21:05:08;;;;;;;;;13.75;13.00;;;;;;;;5070695;28;8795;-76
2023/05/29 21:07:37;;;;;;;;;11.00;11.00;;;;;;;;5070453;28;9652;-76
2023/05/29 21:10:03;;;;;;;;;15.00;13.25;;;;;;;;5067950;28;9496;-76
2023/05/29 21:12:28;;;;;;;;;14.75;13.75;;;;;;;;5070383;28;9440;-77
2023/05/29 21:14:53;;;;;;;;;13.75;13.75;;;;;;;;5070534;28;10141;-76
2023/05/29 21:17:19;;;;;;;;;15.00;13.75;;;;;;;;5070586;28;9018;-77
2023/05/29 21:19:45;;;;;;;;;20.00;16.00;;;;;;;;5069523;28;8786;-77
2023/05/29 21:22:10;;;;;;;;;16.50;15.00;;;;;;;;5070523;28;8908;-76
2023/05/29 21:24:35;;;;;;;;;13.00;13.00;;;;;;;;5070169;28;8826;-77
2023/05/29 21:27:02;;;;;;;;;12.75;12.75;;;;;;;;5071271;28;8806;-77
2023/05/29 21:29:27;;;;;;;;;11.50;11.50;;;;;;;;5070263;28;8875;-75
2023/05/29 21:31:54;;;;;;;;;12.50;12.50;;;;;;;;5070098;28;9496;-76
2023/05/29 21:34:19;;;;;;;;;13.00;13.00;;;;;;;;5069997;28;8818;-76
2023/05/29 21:36:45;;;;;;;;;14.00;13.50;;;;;;;;5066973;28;9969;-77
2023/05/29 21:39:10;;;;;;;;;12.25;12.25;;;;;;;;5069868;28;8812;-76
2023/05/29 21:41:36;;;;;;;;;12.25;10.75;;;;;;;;5069590;28;8918;-77
2023/05/29 21:44:01;;;;;;;;;14.75;12.00;;;;;;;;5069840;28;8941;-76
2023/05/29 21:46:26;;;;;;;;;16.00;13.00;;;;;;;;5069878;28;8806;-76
2023/05/29 21:48:52;;;;;;;;;14.25;13.00;;;;;;;;5069850;28;8798;-76
2023/05/29 21:51:17;;;;;;;;;15.50;12.75;;;;;;;;5068850;28;8806;-76
2023/05/29 21:53:42;;;;;;;;;11.75;11.75;;;;;;;;5069530;28;8795;-77
2023/05/29 21:56:08;;;;;;;;;12.50;12.50;;;;;;;;5070787;28;8909;-76
2023/05/29 21:58:33;;;;;;;;;15.75;15.50;;;;;;;;5068770;28;8815;-77
2023/05/29 22:00:58;;;;;;;;;18.25;13.50;;;;;;;;5069261;28;9011;-76
2023/05/29 22:03:23;;;;;;;;;14.00;12.00;;;;;;;;5069165;28;8825;-76
2023/05/29 22:05:49;;;;;;;;;14.25;13.75;;;;;;;;5069004;28;8910;-77
2023/05/29 22:08:14;;;;;;;;;12.50;11.75;;;;;;;;5068877;28;8795;-76
2023/05/29 22:10:39;;;;;;;;;13.00;13.00;;;;;;;;5068771;28;8831;-75
